ROMMA est une association bénévole à but non lucratif. Votre soutien est indispensable : ADHERER à ROMMA ou FAIRE un DON

Crempigny-Bonneguête - (74, Haute-Savoie)

Albanais-Montagne des Princes (500 m)   Longitude: 05° 54' 5" E   Latitude: 45° 57' 0" N Station partenaire n°10
 

Détail journalier du     <<     >>

Température Precipitation Humidité Pression Vent Dir Rafale Dir. rafale Ensol. 20 cm au dessus du sol
Heure (°C) (mm) (%) (hPa) (km/h) (km/h) (min) (°C)
01:00 14.604710204NO8ONO013.3
02:00 14.904210206NO13ONO013.9
03:00 13.604610205ONO10NO011.7
04:00 12.904210193ONO6ONO011.1
05:00 12.704210194ONO6NO011.1
06:00 12.304310183ONO6ONO010.6
07:00 11.304610193ONO6ONO09.4
08:00 11.105210191ONO5ONO010.0
09:00 12.606710183N8NNE012.2
10:00 12.405410194NNE13S3013.3
11:00 15.205610183N11S015.0
12:00 15.905910185E19S017.2
13:00 15.905910183SSO13SSO015.6
14:00 16.4052101612NO27ONO016.1
15:00 16.406210167SSO24ONO017.2
16:00 18.704710153SSO11SSO2020.0
17:00 19.303910145NNE13N1019.4
18:00 18.804110147NO21NNO518.9
19:00 18.604210137N15NO3517.8
20:00 17.204310137NO16NO016.1
21:00 16.504510137NO15ONO015.6
22:00 14.905110136NO11NO013.3
23:00 16.105010128NO15ONO015.0
minuit 13.705610123O11NO011.7

Graphique du 21-04-2019

 

Serveur OMMA